createdAt,value
2019-03-05T00:01:09.381Z,23.33
2019-03-05T00:03:39.731Z,21.63
2019-03-05T00:06:10.335Z,27.67
2019-03-05T00:08:40.794Z,20.83
2019-03-05T00:11:11.108Z,21.00
2019-03-05T00:13:41.618Z,25.97
2019-03-05T00:16:11.833Z,37.00
2019-03-05T00:18:42.017Z,32.77
2019-03-05T00:21:12.042Z,26.10
2019-03-05T00:23:50.309Z,18.63
2019-03-05T00:26:23.568Z,31.23
2019-03-05T00:29:38.800Z,34.53
2019-03-05T00:32:09.357Z,34.40
2019-03-05T00:35:11.400Z,26.77
2019-03-05T00:38:06.469Z,27.50
2019-03-05T00:41:00.799Z,31.70
2019-03-05T00:43:55.983Z,35.23
2019-03-05T00:46:52.434Z,32.13
2019-03-05T00:49:42.469Z,26.77
2019-03-05T00:52:36.054Z,20.73
2019-03-05T00:55:43.124Z,21.23
2019-03-05T00:58:46.039Z,22.37
2019-03-05T01:01:37.923Z,21.73
2019-03-05T01:04:45.073Z,24.33
2019-03-05T01:07:15.259Z,18.10
2019-03-05T01:09:45.557Z,18.87
2019-03-05T01:12:16.502Z,24.13
2019-03-05T01:14:46.675Z,23.17
2019-03-05T01:17:17.187Z,23.37
2019-03-05T01:19:47.480Z,18.57
2019-03-05T01:22:18.025Z,17.63
2019-03-05T01:24:48.718Z,18.63
2019-03-05T01:27:19.120Z,16.80
2019-03-05T01:29:49.473Z,19.30
2019-03-05T01:32:35.152Z,17.93
2019-03-05T01:35:24.926Z,17.23
2019-03-05T01:37:55.182Z,14.67
2019-03-05T01:40:34.715Z,13.87
2019-03-05T01:43:04.917Z,15.27
2019-03-05T01:45:35.284Z,13.70
2019-03-05T01:48:05.898Z,13.43
2019-03-05T01:50:36.249Z,14.37
2019-03-05T01:53:06.576Z,16.00
2019-03-05T01:55:36.875Z,15.80
2019-03-05T01:58:07.141Z,14.27
2019-03-05T02:00:38.631Z,15.50
2019-03-05T02:03:09.214Z,11.10
2019-03-05T02:05:39.528Z,12.07
2019-03-05T02:08:09.934Z,13.33
2019-03-05T02:10:40.599Z,11.30
2019-03-05T02:13:10.923Z,9.20
2019-03-05T02:15:41.189Z,7.50
2019-03-05T02:18:12.889Z,7.90
2019-03-05T02:20:43.328Z,7.70
2019-03-05T02:23:21.190Z,7.67
2019-03-05T02:26:29.628Z,7.87
2019-03-05T02:29:34.156Z,7.00
2019-03-05T02:32:47.388Z,6.87
2019-03-05T02:36:00.217Z,14.67
2019-03-05T02:39:07.745Z,15.03
2019-03-05T02:42:03.106Z,12.33
2019-03-05T02:44:58.932Z,8.27
2019-03-05T02:48:04.111Z,9.87
2019-03-05T02:51:01.916Z,9.40
2019-03-05T02:53:44.743Z,25.43
2019-03-05T02:56:38.120Z,25.10
2019-03-05T02:59:06.077Z,17.17
2019-03-05T03:01:51.965Z,10.37
2019-03-05T03:04:24.040Z,7.00
2019-03-05T03:06:54.402Z,10.23
2019-03-05T03:10:08.312Z,10.97
2019-03-05T03:12:38.989Z,9.10
2019-03-05T03:15:12.495Z,11.57
2019-03-05T03:17:42.939Z,13.90
2019-03-05T03:20:15.020Z,15.77
2019-03-05T03:22:45.480Z,12.20
2019-03-05T03:25:23.647Z,42.63
2019-03-05T03:27:53.955Z,15.90
2019-03-05T03:30:25.331Z,21.67
2019-03-05T03:32:55.746Z,21.57
2019-03-05T03:35:26.224Z,19.30
2019-03-05T03:37:56.742Z,21.27
2019-03-05T03:40:27.061Z,21.33
2019-03-05T03:42:57.542Z,19.77
2019-03-05T03:45:28.476Z,17.40
2019-03-05T03:47:58.947Z,15.10
2019-03-05T03:50:28.938Z,10.97
2019-03-05T03:52:59.403Z,11.23
2019-03-05T03:55:30.024Z,10.30
2019-03-05T03:58:00.541Z,10.27
2019-03-05T04:00:30.803Z,10.50
2019-03-05T04:03:01.122Z,10.57
2019-03-05T04:05:31.427Z,12.13
2019-03-05T04:08:01.722Z,13.30
2019-03-05T04:10:31.917Z,10.73
2019-03-05T04:13:02.215Z,11.97
2019-03-05T04:15:32.825Z,13.73
2019-03-05T04:18:03.002Z,13.30
2019-03-05T04:20:41.786Z,16.67
2019-03-05T04:23:11.956Z,28.50
2019-03-05T04:25:42.264Z,21.87
2019-03-05T04:28:12.470Z,23.33
2019-03-05T04:30:42.836Z,24.80
2019-03-05T04:33:13.132Z,22.50
2019-03-05T04:35:43.581Z,28.20
2019-03-05T04:38:13.965Z,41.97
2019-03-05T04:40:44.287Z,19.03
2019-03-05T04:43:14.675Z,22.87
2019-03-05T04:46:09.425Z,22.03
2019-03-05T04:48:39.847Z,17.83
2019-03-05T04:51:17.159Z,12.77
2019-03-05T04:53:47.548Z,13.60
2019-03-05T04:56:17.969Z,12.27
2019-03-05T04:58:48.259Z,16.60
2019-03-05T05:01:18.411Z,13.97
2019-03-05T05:03:48.767Z,11.80
2019-03-05T05:06:19.215Z,15.03
2019-03-05T05:08:49.554Z,14.10
2019-03-05T05:11:19.459Z,10.60
2019-03-05T05:13:49.811Z,13.13
2019-03-05T05:16:20.070Z,16.27
2019-03-05T05:18:50.565Z,16.87
2019-03-05T05:21:20.825Z,18.77
2019-03-05T05:23:51.250Z,17.27
2019-03-05T05:26:21.672Z,13.57
2019-03-05T05:28:52.118Z,17.00
2019-03-05T05:31:22.153Z,12.30
2019-03-05T05:33:52.538Z,14.80
2019-03-05T05:36:22.975Z,11.77
2019-03-05T05:38:53.199Z,11.87
2019-03-05T05:41:22.917Z,21.03
2019-03-05T05:43:53.238Z,20.47
2019-03-05T05:46:23.678Z,23.13
2019-03-05T05:48:53.739Z,35.60
2019-03-05T05:51:23.773Z,30.73
2019-03-05T05:53:54.098Z,17.43
2019-03-05T05:56:24.248Z,13.90
2019-03-05T05:58:54.889Z,25.77
2019-03-05T06:01:25.060Z,76.00
2019-03-05T06:03:55.362Z,87.10
2019-03-05T06:06:25.639Z,92.30
2019-03-05T06:08:55.870Z,90.83
2019-03-05T06:11:26.482Z,66.37
2019-03-05T06:13:56.721Z,49.10
2019-03-05T06:16:26.757Z,44.53
2019-03-05T06:18:57.106Z,33.10
2019-03-05T06:21:27.622Z,27.57
2019-03-05T06:23:57.930Z,35.93
2019-03-05T06:26:28.405Z,33.17
2019-03-05T06:28:58.970Z,28.73
2019-03-05T06:31:29.575Z,35.20
2019-03-05T06:33:59.638Z,18.53
2019-03-05T06:36:45.039Z,13.67
2019-03-05T06:39:15.078Z,10.50
2019-03-05T06:41:45.398Z,24.67
2019-03-05T06:44:15.834Z,28.57
2019-03-05T06:46:46.138Z,22.37
2019-03-05T06:49:16.464Z,17.87
2019-03-05T06:51:46.815Z,18.23
2019-03-05T06:54:17.261Z,73.90
2019-03-05T06:56:47.797Z,85.87
2019-03-05T06:59:18.095Z,73.40
2019-03-05T07:01:48.609Z,59.93
2019-03-05T07:04:19.076Z,43.20
2019-03-05T07:06:59.278Z,44.20
2019-03-05T07:10:04.381Z,40.70
2019-03-05T07:12:56.526Z,40.37
2019-03-05T07:15:56.668Z,38.70
2019-03-05T07:18:33.207Z,46.33
2019-03-05T07:21:49.132Z,44.77
2019-03-05T07:24:41.817Z,46.73
2019-03-05T07:27:12.418Z,51.83
2019-03-05T07:29:43.152Z,53.97
2019-03-05T07:32:13.415Z,33.47
2019-03-05T07:34:46.067Z,33.73
2019-03-05T07:37:16.326Z,41.60
2019-03-05T07:39:46.769Z,24.87
2019-03-05T07:42:17.337Z,22.70
2019-03-05T07:44:47.579Z,26.83
2019-03-05T07:47:17.444Z,22.80
2019-03-05T07:49:47.385Z,31.57
2019-03-05T07:52:17.564Z,30.63
2019-03-05T07:54:47.591Z,31.13
2019-03-05T07:57:17.927Z,30.07
2019-03-05T07:59:48.329Z,25.43
2019-03-05T08:02:18.235Z,19.77
2019-03-05T08:04:48.190Z,19.80
2019-03-05T08:07:18.647Z,42.33
2019-03-05T08:09:49.077Z,45.73
2019-03-05T08:13:02.352Z,38.30
2019-03-05T08:16:02.339Z,20.77
2019-03-05T08:18:28.800Z,21.77
2019-03-05T08:20:58.771Z,21.60
2019-03-05T08:23:28.742Z,17.07
2019-03-05T08:25:58.915Z,20.90
2019-03-05T08:28:29.184Z,20.60
2019-03-05T08:30:59.094Z,35.03
2019-03-05T08:33:29.517Z,17.10
2019-03-05T08:35:59.711Z,13.27
2019-03-05T08:38:29.875Z,12.73
2019-03-05T08:40:59.979Z,8.10
2019-03-05T08:43:30.403Z,8.23
2019-03-05T08:46:00.824Z,8.10
2019-03-05T08:48:30.758Z,6.67
2019-03-05T08:51:00.660Z,6.23
2019-03-05T08:53:31.173Z,5.70
2019-03-05T08:56:01.530Z,5.17
2019-03-05T08:58:31.714Z,5.73
2019-03-05T09:01:01.837Z,6.97
2019-03-05T09:03:32.274Z,6.10
2019-03-05T09:06:02.754Z,6.43
2019-03-05T09:08:33.111Z,6.27
2019-03-05T09:11:02.817Z,6.17
2019-03-05T09:13:33.324Z,7.03
2019-03-05T09:16:03.683Z,9.87
2019-03-05T09:18:33.651Z,10.77
2019-03-05T09:21:03.890Z,8.90
2019-03-05T09:23:34.411Z,8.93
2019-03-05T09:26:04.757Z,7.23
2019-03-05T09:28:34.632Z,7.30
2019-03-05T09:31:04.844Z,8.23
2019-03-05T09:33:35.197Z,7.23
2019-03-05T09:36:05.852Z,5.67
2019-03-05T09:38:36.122Z,6.83
2019-03-05T09:41:05.799Z,6.70
2019-03-05T09:43:36.088Z,6.30
2019-03-05T09:46:06.552Z,6.13
2019-03-05T09:48:36.875Z,7.83
2019-03-05T09:51:07.239Z,6.57
2019-03-05T09:53:37.410Z,7.13
2019-03-05T09:56:07.510Z,8.67
2019-03-05T09:58:37.890Z,7.30
2019-03-05T10:01:08.493Z,6.60
2019-03-05T10:03:38.181Z,6.17
2019-03-05T10:06:08.268Z,7.10
2019-03-05T10:08:38.435Z,8.30
2019-03-05T10:11:08.686Z,6.60
2019-03-05T10:13:38.915Z,5.97
2019-03-05T10:16:09.490Z,5.45
2019-03-05T10:18:40.118Z,5.05
2019-03-05T10:21:11.947Z,5.90
2019-03-05T10:23:42.397Z,4.60
2019-03-05T10:26:13.035Z,4.85
2019-03-05T10:28:43.629Z,5.15
2019-03-05T10:31:14.001Z,5.28
2019-03-05T10:33:44.550Z,5.00
2019-03-05T10:36:14.896Z,4.87
2019-03-05T10:38:56.584Z,5.05
2019-03-05T10:41:26.309Z,6.08
2019-03-05T10:43:56.622Z,4.97
2019-03-05T10:46:27.203Z,4.78
2019-03-05T10:48:57.594Z,4.55
2019-03-05T10:51:28.656Z,5.53
2019-03-05T10:54:02.312Z,5.40
2019-03-05T10:56:32.466Z,5.67
2019-03-05T10:59:02.342Z,4.30
2019-03-05T11:01:32.305Z,5.08
2019-03-05T11:04:02.948Z,4.67
2019-03-05T11:06:33.549Z,5.25
2019-03-05T11:09:04.429Z,5.35
2019-03-05T11:11:34.608Z,5.83
2019-03-05T11:14:04.970Z,5.55
2019-03-05T11:16:35.182Z,5.70
2019-03-05T11:19:06.199Z,5.22
2019-03-05T11:21:36.609Z,10.35
2019-03-05T11:24:07.551Z,11.22
2019-03-05T11:26:37.850Z,5.70
2019-03-05T11:29:08.327Z,4.92
2019-03-05T11:31:38.625Z,5.40
2019-03-05T11:34:09.275Z,4.40
2019-03-05T11:36:39.421Z,5.40
2019-03-05T11:39:09.938Z,12.15
2019-03-05T11:41:40.249Z,5.20
2019-03-05T11:44:10.560Z,6.40
2019-03-05T11:46:40.807Z,7.53
2019-03-05T11:49:11.285Z,10.67
2019-03-05T11:51:41.787Z,19.00
2019-03-05T11:54:12.164Z,5.50
2019-03-05T11:56:42.577Z,7.08
2019-03-05T11:59:12.861Z,7.23
2019-03-05T12:01:46.189Z,4.80
2019-03-05T12:04:16.512Z,5.15
2019-03-05T12:06:46.893Z,5.00
2019-03-05T12:09:17.341Z,5.97
2019-03-05T12:11:47.926Z,6.12
2019-03-05T12:14:18.513Z,4.95
2019-03-05T12:16:49.007Z,8.30
2019-03-05T12:19:19.384Z,9.00
2019-03-05T12:21:49.706Z,5.55
2019-03-05T12:24:23.913Z,4.90
2019-03-05T12:26:51.493Z,5.80
2019-03-05T12:29:21.652Z,5.25
2019-03-05T12:31:51.969Z,4.75
2019-03-05T12:34:22.358Z,4.95
2019-03-05T12:36:52.688Z,4.80
2019-03-05T12:39:23.745Z,5.55
2019-03-05T12:41:54.022Z,7.12
2019-03-05T12:44:24.522Z,7.25
2019-03-05T12:46:55.076Z,5.08
2019-03-05T12:49:24.901Z,7.53
2019-03-05T12:51:55.127Z,5.23
2019-03-05T12:54:25.607Z,5.27
2019-03-05T12:56:55.500Z,4.63
2019-03-05T12:59:25.636Z,4.50
2019-03-05T13:01:55.725Z,5.40
2019-03-05T13:04:26.047Z,5.17
2019-03-05T13:06:56.510Z,4.50
2019-03-05T13:09:26.704Z,4.50
2019-03-05T13:11:56.933Z,6.50
2019-03-05T13:14:26.943Z,5.37
2019-03-05T13:16:57.126Z,5.23
2019-03-05T13:19:27.110Z,4.40
2019-03-05T13:21:57.458Z,5.00
2019-03-05T13:24:27.754Z,4.83
2019-03-05T13:26:57.839Z,6.17
2019-03-05T13:29:28.063Z,6.23
2019-03-05T13:31:57.869Z,6.10
2019-03-05T13:34:28.218Z,5.80
2019-03-05T13:37:00.796Z,6.73
2019-03-05T13:39:30.642Z,7.20
2019-03-05T13:42:01.165Z,7.43
2019-03-05T13:44:35.713Z,5.40
2019-03-05T13:47:08.538Z,6.93
2019-03-05T13:49:58.903Z,6.00
2019-03-05T13:52:59.972Z,4.60
2019-03-05T13:56:12.043Z,4.63
2019-03-05T13:59:11.646Z,5.83
2019-03-05T14:01:42.483Z,6.33
2019-03-05T14:04:16.951Z,4.43
2019-03-05T14:07:22.510Z,7.13
2019-03-05T14:09:53.749Z,6.70
2019-03-05T14:12:24.073Z,5.00
2019-03-05T14:14:54.498Z,7.90
2019-03-05T14:17:30.140Z,4.90
2019-03-05T14:20:00.549Z,6.73
2019-03-05T14:22:31.032Z,8.00
2019-03-05T14:25:02.938Z,12.47
2019-03-05T14:27:33.826Z,13.03
2019-03-05T14:30:05.100Z,10.57
2019-03-05T14:32:35.549Z,6.37
2019-03-05T14:35:10.798Z,9.37
2019-03-05T14:37:41.674Z,13.70
2019-03-05T14:40:23.990Z,19.17
2019-03-05T14:42:47.941Z,29.70
2019-03-05T14:45:22.202Z,11.20
2019-03-05T14:47:54.046Z,10.83
2019-03-05T14:50:24.742Z,12.27
2019-03-05T14:52:55.230Z,14.27
2019-03-05T14:55:29.996Z,15.07
2019-03-05T14:58:00.565Z,12.87
2019-03-05T15:00:30.911Z,12.43
2019-03-05T15:03:01.668Z,12.10
2019-03-05T15:05:32.172Z,12.67
2019-03-05T15:08:02.726Z,17.40
2019-03-05T15:10:35.919Z,15.83
2019-03-05T15:13:15.259Z,16.40
2019-03-05T15:15:38.767Z,15.67
2019-03-05T15:18:09.450Z,15.90
2019-03-05T15:20:40.001Z,16.70
2019-03-05T15:23:10.711Z,13.87
2019-03-05T15:25:41.401Z,16.00
2019-03-05T15:28:11.754Z,15.90
2019-03-05T15:30:42.294Z,18.73
2019-03-05T15:33:12.986Z,20.67
2019-03-05T15:35:43.554Z,20.80
2019-03-05T15:38:16.174Z,24.50
2019-03-05T15:40:46.764Z,41.50
2019-03-05T15:43:17.493Z,28.97
2019-03-05T15:45:48.123Z,110.47
2019-03-05T15:48:18.568Z,147.13
2019-03-05T15:50:49.272Z,59.00
2019-03-05T15:53:19.915Z,61.33
2019-03-05T15:55:50.331Z,30.40
2019-03-05T15:58:20.880Z,70.80
2019-03-05T16:00:51.903Z,40.37
2019-03-05T16:03:22.331Z,36.43
2019-03-05T16:05:53.832Z,50.80
2019-03-05T16:08:26.189Z,54.20
2019-03-05T16:10:58.671Z,77.40
2019-03-05T16:13:29.175Z,41.63
2019-03-05T16:15:59.587Z,79.43
2019-03-05T16:18:30.291Z,43.37
2019-03-05T16:21:02.588Z,75.30
2019-03-05T16:23:34.037Z,187.07
2019-03-05T16:26:04.559Z,358.57
2019-03-05T16:28:35.022Z,102.77
2019-03-05T16:31:27.515Z,100.57
2019-03-05T16:34:14.281Z,72.80
2019-03-05T16:37:21.187Z,98.27
2019-03-05T16:40:19.273Z,119.50
2019-03-05T16:43:07.611Z,67.97
2019-03-05T16:45:55.775Z,33.90
2019-03-05T16:48:45.550Z,33.13
2019-03-05T16:51:37.502Z,125.77
2019-03-05T16:54:26.959Z,89.57
2019-03-05T16:57:22.378Z,58.83
2019-03-05T17:00:10.463Z,53.93
2019-03-05T17:02:58.761Z,83.60
2019-03-05T17:05:48.018Z,159.77
2019-03-05T17:08:35.534Z,64.47
2019-03-05T17:11:28.307Z,81.80
2019-03-05T17:13:58.851Z,80.10
2019-03-05T17:16:29.437Z,106.83
2019-03-05T17:18:59.898Z,31.43
2019-03-05T17:21:30.409Z,57.40
2019-03-05T17:24:01.668Z,63.93
2019-03-05T17:26:33.716Z,56.57
2019-03-05T17:29:04.852Z,42.17
2019-03-05T17:31:35.366Z,32.03
2019-03-05T17:34:05.950Z,24.83
2019-03-05T17:36:36.424Z,22.37
2019-03-05T17:39:11.377Z,18.07
2019-03-05T17:41:44.387Z,20.23
2019-03-05T17:44:15.261Z,37.57
2019-03-05T17:46:46.565Z,30.43
2019-03-05T17:49:17.087Z,222.03
2019-03-05T17:51:49.385Z,306.47
2019-03-05T17:54:21.353Z,159.70
2019-03-05T17:56:52.097Z,40.53
2019-03-05T17:59:24.373Z,35.00
2019-03-05T18:01:54.988Z,26.57
2019-03-05T18:04:25.816Z,26.87
2019-03-05T18:06:56.514Z,37.67
2019-03-05T18:09:28.373Z,22.97
2019-03-05T18:12:01.530Z,25.63
2019-03-05T18:14:33.092Z,25.23
2019-03-05T18:17:03.634Z,21.20
2019-03-05T18:19:34.443Z,18.50
2019-03-05T18:22:05.289Z,29.93
2019-03-05T18:24:36.740Z,22.20
2019-03-05T18:27:07.482Z,16.33
2019-03-05T18:29:38.733Z,19.97
2019-03-05T18:32:12.356Z,18.50
2019-03-05T18:34:43.045Z,31.03
2019-03-05T18:37:13.464Z,15.13
2019-03-05T18:39:46.005Z,13.30
2019-03-05T18:42:16.796Z,27.77
2019-03-05T18:44:48.815Z,13.93
2019-03-05T18:47:19.615Z,15.03
2019-03-05T18:49:50.271Z,16.83
2019-03-05T18:52:21.003Z,14.77
2019-03-05T18:54:52.964Z,20.40
2019-03-05T18:57:23.797Z,15.30
2019-03-05T18:59:54.443Z,17.63
2019-03-05T19:02:25.179Z,15.83
2019-03-05T19:04:55.970Z,14.73
2019-03-05T19:07:26.798Z,16.67
2019-03-05T19:09:57.222Z,13.73
2019-03-05T19:12:30.314Z,14.23
2019-03-05T19:15:04.138Z,15.27
2019-03-05T19:17:37.488Z,16.50
2019-03-05T19:20:11.743Z,15.13
2019-03-05T19:22:43.391Z,14.10
2019-03-05T19:25:20.441Z,15.73
2019-03-05T19:27:53.452Z,18.40
2019-03-05T19:30:28.813Z,17.80
2019-03-05T19:32:59.526Z,17.33
2019-03-05T19:35:29.999Z,18.77
2019-03-05T19:38:00.610Z,14.63
2019-03-05T19:40:33.876Z,18.23
2019-03-05T19:43:06.872Z,15.53
2019-03-05T19:45:37.475Z,14.27
2019-03-05T19:48:07.998Z,16.50
2019-03-05T19:50:38.543Z,15.30
2019-03-05T19:53:09.223Z,17.40
2019-03-05T19:55:39.995Z,16.03
2019-03-05T19:58:11.430Z,14.73
2019-03-05T20:01:12.482Z,18.30
2019-03-05T20:03:43.263Z,17.63
2019-03-05T20:06:14.993Z,25.03
2019-03-05T20:08:47.925Z,44.33
2019-03-05T20:11:18.609Z,18.87
2019-03-05T20:13:49.150Z,17.47
2019-03-05T20:16:20.797Z,20.93
2019-03-05T20:18:51.289Z,17.03
2019-03-05T20:21:21.848Z,23.93
2019-03-05T20:23:52.595Z,20.37
2019-03-05T20:26:23.140Z,30.63
2019-03-05T20:28:53.724Z,32.80
2019-03-05T20:31:27.258Z,31.37
2019-03-05T20:33:59.804Z,24.77
2019-03-05T20:36:30.661Z,22.50
2019-03-05T20:39:01.375Z,20.70
2019-03-05T20:41:31.952Z,19.87
2019-03-05T20:44:04.912Z,18.27
2019-03-05T20:46:35.470Z,18.17
2019-03-05T20:49:06.303Z,17.93
2019-03-05T20:51:36.945Z,13.63
2019-03-05T20:54:07.605Z,16.13
2019-03-05T20:56:40.659Z,19.27
2019-03-05T20:59:11.130Z,19.17
2019-03-05T21:01:41.934Z,26.70
2019-03-05T21:04:12.606Z,30.57
2019-03-05T21:06:43.425Z,23.67
2019-03-05T21:09:24.852Z,37.67
2019-03-05T21:11:55.667Z,57.93
2019-03-05T21:14:27.470Z,71.93
2019-03-05T21:16:58.398Z,86.27
2019-03-05T21:19:28.966Z,48.60
2019-03-05T21:21:59.240Z,32.03
2019-03-05T21:24:29.961Z,31.77
2019-03-05T21:27:02.018Z,30.57
2019-03-05T21:29:34.057Z,28.00
2019-03-05T21:32:04.892Z,24.87
2019-03-05T21:34:35.919Z,27.27
2019-03-05T21:37:06.746Z,25.67
2019-03-05T21:39:37.350Z,21.37
2019-03-05T21:42:09.784Z,20.57
2019-03-05T21:44:40.752Z,24.33
2019-03-05T21:47:11.494Z,27.77
2019-03-05T21:49:42.234Z,33.17
2019-03-05T21:52:12.653Z,22.53
2019-03-05T21:54:43.153Z,21.40
2019-03-05T21:57:13.936Z,28.63
2019-03-05T21:59:44.625Z,25.27
2019-03-05T22:02:15.426Z,39.37
2019-03-05T22:04:45.855Z,20.80
2019-03-05T22:07:16.584Z,21.53
2019-03-05T22:09:48.004Z,21.97
2019-03-05T22:12:18.408Z,23.73
2019-03-05T22:14:48.911Z,19.67
2019-03-05T22:17:19.530Z,23.17
2019-03-05T22:19:50.049Z,19.47
2019-03-05T22:22:20.525Z,18.53
2019-03-05T22:24:52.368Z,15.80
2019-03-05T22:27:25.194Z,54.67
2019-03-05T22:29:55.664Z,27.73
2019-03-05T22:32:26.426Z,26.43
2019-03-05T22:35:00.303Z,28.97
2019-03-05T22:37:30.856Z,28.37
2019-03-05T22:40:01.458Z,24.27
2019-03-05T22:42:32.171Z,27.07
2019-03-05T22:45:02.923Z,26.03
2019-03-05T22:47:33.662Z,20.97
2019-03-05T22:50:04.614Z,23.83
2019-03-05T22:52:36.458Z,20.87
2019-03-05T22:55:08.612Z,16.73
2019-03-05T22:57:42.449Z,18.03
2019-03-05T23:00:19.901Z,13.53
2019-03-05T23:02:51.019Z,18.37
2019-03-05T23:05:21.633Z,15.60
2019-03-05T23:07:52.339Z,17.93
2019-03-05T23:10:23.327Z,14.13
2019-03-05T23:12:55.664Z,15.77
2019-03-05T23:15:26.654Z,13.00
2019-03-05T23:17:57.278Z,16.00
2019-03-05T23:20:30.000Z,15.30
2019-03-05T23:23:00.504Z,18.53
2019-03-05T23:25:31.318Z,16.10
2019-03-05T23:28:01.781Z,14.03
2019-03-05T23:30:32.544Z,15.10
2019-03-05T23:33:03.028Z,15.63
2019-03-05T23:35:33.598Z,11.23
2019-03-05T23:38:06.323Z,9.77
2019-03-05T23:40:36.870Z,7.93
2019-03-05T23:43:07.797Z,9.77
2019-03-05T23:45:39.692Z,11.70
2019-03-05T23:48:10.575Z,9.60
2019-03-05T23:50:42.735Z,7.87
2019-03-05T23:53:13.081Z,15.73
2019-03-05T23:55:43.944Z,9.07
2019-03-05T23:58:14.853Z,9.33
